Ardmore Capella — V7WK3 — position and weather

sailwx.info

Track history (hours):
 
Tides and Currents Weather Stations Pressure Air Temp Water Temp Dewpoint Dewpoint Depression Visibility Wind Speed Wind Dir Waves Ship Positions

Ardmore Capella

Last reported at 2018-Jan-21 16:28 UTC. Time now 2018-Jan-21 16:59 UTC.
Position N 49°28' E 000°09'.

Length 144 m; draft 6 m.

Type: Ship. MMSI: 538004321.

Date/timePositionNaut miles runAvg speedWind from/ knotsBaromVisibWave heightAir tempDewpointWater temp
2018-Jan-21 16:28N 49°28' E 000°09'0 0.0
2018-Jan-21 15:58N 49°28' E 000°09'0 0.0
2018-Jan-21 15:28N 49°28' E 000°09'0 0.0
2018-Jan-21 14:58N 49°28' E 000°09'0 0.0
2018-Jan-21 14:28N 49°28' E 000°09'0 0.0
2018-Jan-21 13:58N 49°28' E 000°09'0 0.0
2018-Jan-21 13:28N 49°28' E 000°09'0 0.0
2018-Jan-21 12:58N 49°28' E 000°09'0 0.0
2018-Jan-21 12:28N 49°28' E 000°09'0 0.0
2018-Jan-21 11:58N 49°28' E 000°09'0 0.0
2018-Jan-21 11:28N 49°28' E 000°09'0 0.0
2018-Jan-21 10:58N 49°28' E 000°09'0 0.0
2018-Jan-21 10:28N 49°28' E 000°09'0 0.0
2018-Jan-21 09:58N 49°28' E 000°09'0 0.0
2018-Jan-21 09:28N 49°28' E 000°09'0 0.0
2018-Jan-21 08:58N 49°28' E 000°09'0 0.0
2018-Jan-21 08:28N 49°28' E 000°09'0 0.0
2018-Jan-21 07:58N 49°28' E 000°09'0 0.0
2018-Jan-21 07:28N 49°28' E 000°09'0 0.0
2018-Jan-21 06:58N 49°28' E 000°09'0 0.0
2018-Jan-21 06:28N 49°28' E 000°09'0 0.0
2018-Jan-21 05:58N 49°28' E 000°09'0 0.0
2018-Jan-21 05:29N 49°28' E 000°09'0 0.6
2018-Jan-21 05:00N 49°28' E 000°09'4 7.4
2018-Jan-21 04:30N 49°29' E 000°04'713.8
2018-Jan-21 04:01N 49°31' W 000°06'3 5.3
2018-Jan-21 03:30N 49°34' W 000°08'2 4.6
2018-Jan-21 03:01N 49°36' W 000°08'2 4.4
2018-Jan-21 02:31N 49°38' W 000°09'816.4
2018-Jan-21 02:00N 49°46' W 000°10'1019.7
2018-Jan-21 01:30N 49°56' W 000°09'1019.4
2018-Jan-21 01:00N 50°06' W 000°07'1019.1
2018-Jan-21 00:30N 50°15' W 000°07'918.7
2018-Jan-21 00:00N 50°25' W 000°05'816.2
2018-Jan-20 23:30N 50°30' E 000°04'917.5
2018-Jan-20 23:00N 50°34' E 000°17'917.4
2018-Jan-20 22:30N 50°35' E 000°30'918.1
2018-Jan-20 22:00N 50°39' E 000°43'1019.6
2018-Jan-20 21:30N 50°45' E 000°55'1020.8
2018-Jan-20 21:00N 50°53' E 001°07'1121.9
2018-Jan-20 20:30N 50°60' E 001°20'1122.2
2018-Jan-20 20:00N 51°07' E 001°34'1121.1
2018-Jan-20 19:30N 51°13' E 001°46'1020.3
2018-Jan-20 19:01N 51°23' E 001°53'816.2
2018-Jan-20 18:30N 51°24' E 002°06'1019.2
2018-Jan-20 18:00N 51°21' E 002°21'1019.1
2018-Jan-20 17:28N 51°23' E 002°37'613.4
2018-Jan-20 17:00N 51°25' E 002°47'816.7
2018-Jan-20 16:30N 51°25' E 003°00'917.0
2018-Jan-20 16:00N 51°25' E 003°14'816.7
2018-Jan-20 15:30N 51°25' E 003°27'611.9
2018-Jan-20 15:00N 51°26' E 003°36'5 9.3
2018-Jan-20 14:31N 51°24' E 003°43'612.2
2018-Jan-20 14:00N 51°21' E 003°51'612.1
2018-Jan-20 13:30N 51°25' E 003°58'5 9.5
2018-Jan-20 13:00N 51°22' E 004°04'611.5
2018-Jan-20 12:30N 51°23' E 004°13'3 6.9
2018-Jan-20 12:00N 51°21' E 004°17'0 0.0
2018-Jan-20 11:30N 51°21' E 004°17'0 0.0
2018-Jan-20 11:00N 51°21' E 004°17'2 3.3
2018-Jan-20 10:30N 51°19' E 004°19'1 2.1
2018-Jan-20 09:59N 51°20' E 004°20'0 0.0
2018-Jan-20 09:29N 51°20' E 004°20'0 0.0
2018-Jan-20 08:59N 51°20' E 004°20'0 0.0
2018-Jan-20 08:26N 51°20' E 004°20'0 0.0
2018-Jan-20 07:59N 51°20' E 004°20'0 0.0
2018-Jan-20 07:29N 51°20' E 004°20'0 0.0
2018-Jan-20 06:56N 51°20' E 004°20'0 0.0
2018-Jan-20 06:29N 51°20' E 004°20'0 0.0
2018-Jan-20 05:56N 51°20' E 004°20'0 0.0
2018-Jan-20 05:29N 51°20' E 004°20'0 0.0
2018-Jan-20 04:59N 51°20' E 004°20'0 0.0
2018-Jan-20 04:26N 51°20' E 004°20'0 0.0
2018-Jan-20 03:53N 51°20' E 004°20'0 0.0
2018-Jan-20 03:26N 51°20' E 004°20'0 0.0
2018-Jan-20 02:56N 51°20' E 004°20'0 0.0
2018-Jan-20 02:26N 51°20' E 004°20'0 0.0
2018-Jan-20 01:59N 51°20' E 004°20'0 0.0
2018-Jan-20 01:26N 51°20' E 004°20'0 0.0
2018-Jan-20 00:59N 51°20' E 004°20'0 0.0
2018-Jan-20 00:23N 51°20' E 004°20'0 0.0
2018-Jan-19 23:59N 51°20' E 004°20'0 0.0
2018-Jan-19 23:29N 51°20' E 004°20'0 0.0
2018-Jan-19 22:59N 51°20' E 004°20'0 0.0
2018-Jan-19 22:26N 51°20' E 004°20'0 0.0
2018-Jan-19 21:56N 51°20' E 004°20'0 0.0
2018-Jan-19 21:26N 51°20' E 004°20'0 0.0
2018-Jan-19 20:59N 51°20' E 004°20'0 0.0
2018-Jan-19 20:29N 51°20' E 004°20'0 0.0
2018-Jan-19 19:59N 51°20' E 004°20'0 0.0
2018-Jan-19 19:29N 51°20' E 004°20'0 0.0
2018-Jan-19 18:59N 51°20' E 004°20'0 0.0
2018-Jan-19 18:26N 51°20' E 004°20'0 0.0
2018-Jan-19 17:56N 51°20' E 004°20'0 0.0
2018-Jan-19 17:26N 51°20' E 004°20'0 0.0
2018-Jan-19 16:56N 51°20' E 004°20'0 0.0
2018-Jan-19 16:23N 51°20' E 004°20'0 0.0
2018-Jan-19 15:59N 51°20' E 004°20'0 0.0
2018-Jan-19 15:26N 51°20' E 004°20'0 0.0
2018-Jan-19 14:50N 51°20' E 004°20'0 0.0
2018-Jan-19 14:26N 51°20' E 004°20'0 0.0
2018-Jan-19 13:56N 51°20' E 004°20'0 0.0
2018-Jan-19 13:29N 51°20' E 004°20'0 0.0
2018-Jan-19 12:56N 51°20' E 004°20'0 0.0
2018-Jan-19 12:29N 51°20' E 004°20'0 0.0
2018-Jan-19 11:44N 51°20' E 004°20'0 0.0
2018-Jan-19 11:20N 51°20' E 004°20'0 0.0
2018-Jan-19 10:56N 51°20' E 004°20'0 0.0
2018-Jan-19 10:20N 51°20' E 004°20'0 0.0
2018-Jan-19 09:38N 51°20' E 004°20'0 0.0
2018-Jan-19 09:29N 51°20' E 004°20'0 0.0
2018-Jan-19 08:59N 51°20' E 004°20'0 0.0
2018-Jan-19 08:29N 51°20' E 004°20'0 0.0
2018-Jan-19 07:59N 51°20' E 004°20'0 0.0
2018-Jan-19 07:29N 51°20' E 004°20'0 0.0
2018-Jan-19 06:59N 51°20' E 004°20'0 0.0
2018-Jan-19 06:29N 51°20' E 004°20'0 0.0
2018-Jan-19 05:59N 51°20' E 004°20'0 0.0
2018-Jan-19 05:26N 51°20' E 004°20'0 0.0
2018-Jan-19 04:56N 51°20' E 004°20'0 0.0
2018-Jan-19 04:29N 51°20' E 004°20'0 0.0
2018-Jan-19 03:59N 51°20' E 004°20'0 0.0
2018-Jan-19 03:29N 51°20' E 004°20'0 0.0
2018-Jan-19 02:59N 51°20' E 004°20'0 0.0
2018-Jan-19 02:29N 51°20' E 004°20'0 0.0
2018-Jan-19 01:59N 51°20' E 004°20'0 0.0
2018-Jan-19 01:26N 51°20' E 004°20'0 0.0
2018-Jan-19 00:56N 51°20' E 004°20'0 0.0
2018-Jan-19 00:29N 51°20' E 004°20'0 0.0
2018-Jan-18 23:59N 51°20' E 004°20'0 0.0
2018-Jan-18 23:29N 51°20' E 004°20'0 0.0
2018-Jan-18 22:59N 51°20' E 004°20'0 0.0
2018-Jan-18 22:29N 51°20' E 004°20'0 0.0
2018-Jan-18 21:59N 51°20' E 004°20'0 0.0
2018-Jan-18 21:29N 51°20' E 004°20'0 0.0
2018-Jan-18 20:59N 51°20' E 004°20'0 0.0
2018-Jan-18 20:29N 51°20' E 004°20'0 0.0
2018-Jan-18 19:59N 51°20' E 004°20'0 0.0
2018-Jan-18 19:29N 51°20' E 004°20'0 0.0
2018-Jan-18 18:59N 51°20' E 004°20'0 0.0
2018-Jan-18 18:29N 51°20' E 004°20'0 0.0
2018-Jan-18 17:59N 51°20' E 004°20'0 0.0
2018-Jan-18 17:20N 51°20' E 004°20'0 0.0
2018-Jan-18 16:56N 51°20' E 004°20'0 0.0
2018-Jan-18 16:23N 51°20' E 004°20'0 0.0
2018-Jan-18 15:53N 51°20' E 004°20'0 0.0
2018-Jan-18 15:26N 51°20' E 004°20'0 0.0
2018-Jan-18 14:56N 51°20' E 004°20'0 0.0
2018-Jan-18 14:20N 51°20' E 004°20'0 0.0
2018-Jan-18 13:53N 51°20' E 004°20'0 0.0
2018-Jan-18 13:29N 51°20' E 004°20'0 0.0
2018-Jan-18 12:53N 51°20' E 004°20'0 0.0
2018-Jan-18 12:29N 51°20' E 004°20'0 0.0
2018-Jan-18 11:59N 51°20' E 004°20'0 0.0
2018-Jan-18 11:23N 51°20' E 004°20'0 0.0
2018-Jan-18 10:59N 51°20' E 004°20'0 0.0
2018-Jan-18 10:29N 51°20' E 004°20'0 0.0
2018-Jan-18 09:56N 51°20' E 004°20'0 0.0
2018-Jan-18 09:26N 51°20' E 004°20'0 0.0
2018-Jan-18 08:59N 51°20' E 004°20'0 0.0
2018-Jan-18 08:29N 51°20' E 004°20'0 0.0
2018-Jan-18 07:59N 51°20' E 004°20'0 0.0
2018-Jan-18 07:29N 51°20' E 004°20'0 0.0
2018-Jan-18 06:59N 51°20' E 004°20'0 0.0
2018-Jan-18 06:29N 51°20' E 004°20'0 0.0
2018-Jan-18 05:59N 51°20' E 004°20'0 0.0
2018-Jan-18 05:29N 51°20' E 004°20'0 0.0
2018-Jan-18 04:59N 51°20' E 004°20'0 0.0
2018-Jan-18 04:30N 51°20' E 004°20'1 2.8
2018-Jan-18 04:00N 51°20' E 004°18'1 1.9
2018-Jan-18 03:31N 51°21' E 004°17'0 0.0
2018-Jan-18 03:00N 51°21' E 004°17'0 0.0
2018-Jan-18 02:30N 51°21' E 004°17'2 4.9
2018-Jan-18 02:00N 51°22' E 004°13'3 7.0
2018-Jan-18 01:30N 51°22' E 004°08'511.1
2018-Jan-18 01:01N 51°26' E 004°01'1211.5
2018-Jan-18 00:00N 51°23' E 003°43'116.1
2018-Jan-17 23:57N 51°24' E 003°43'  
Track history (hours):
 
Tides and Currents Weather Stations Pressure Air Temp Water Temp Dewpoint Dewpoint Depression Visibility Wind Speed Wind Dir Waves Ship Positions

Ardmore Capella

Last reported at 2018-Jan-21 16:28 UTC. Time now 2018-Jan-21 16:59 UTC.
Position N 49°28' E 000°09'.

Length 144 m; draft 6 m.

Type: Ship. MMSI: 538004321.

Date/timePositionNaut miles runAvg speedWind from/ knotsBaromVisibWave heightAir tempDewpointWater temp
2018-Jan-21 16:28N 49°28' E 000°09'0 0.0
2018-Jan-21 15:58N 49°28' E 000°09'0 0.0
2018-Jan-21 15:28N 49°28' E 000°09'0 0.0
2018-Jan-21 14:58N 49°28' E 000°09'0 0.0
2018-Jan-21 14:28N 49°28' E 000°09'0 0.0
2018-Jan-21 13:58N 49°28' E 000°09'0 0.0
2018-Jan-21 13:28N 49°28' E 000°09'0 0.0
2018-Jan-21 12:58N 49°28' E 000°09'0 0.0
2018-Jan-21 12:28N 49°28' E 000°09'0 0.0
2018-Jan-21 11:58N 49°28' E 000°09'0 0.0
2018-Jan-21 11:28N 49°28' E 000°09'0 0.0
2018-Jan-21 10:58N 49°28' E 000°09'0 0.0
2018-Jan-21 10:28N 49°28' E 000°09'0 0.0
2018-Jan-21 09:58N 49°28' E 000°09'0 0.0
2018-Jan-21 09:28N 49°28' E 000°09'0 0.0
2018-Jan-21 08:58N 49°28' E 000°09'0 0.0
2018-Jan-21 08:28N 49°28' E 000°09'0 0.0
2018-Jan-21 07:58N 49°28' E 000°09'0 0.0
2018-Jan-21 07:28N 49°28' E 000°09'0 0.0
2018-Jan-21 06:58N 49°28' E 000°09'0 0.0
2018-Jan-21 06:28N 49°28' E 000°09'0 0.0
2018-Jan-21 05:58N 49°28' E 000°09'0 0.0
2018-Jan-21 05:29N 49°28' E 000°09'0 0.6
2018-Jan-21 05:00N 49°28' E 000°09'4 7.4
2018-Jan-21 04:30N 49°29' E 000°04'713.8
2018-Jan-21 04:01N 49°31' W 000°06'3 5.3
2018-Jan-21 03:30N 49°34' W 000°08'2 4.6
2018-Jan-21 03:01N 49°36' W 000°08'2 4.4
2018-Jan-21 02:31N 49°38' W 000°09'816.4
2018-Jan-21 02:00N 49°46' W 000°10'1019.7
2018-Jan-21 01:30N 49°56' W 000°09'1019.4
2018-Jan-21 01:00N 50°06' W 000°07'1019.1
2018-Jan-21 00:30N 50°15' W 000°07'918.7
2018-Jan-21 00:00N 50°25' W 000°05'816.2
2018-Jan-20 23:30N 50°30' E 000°04'917.5
2018-Jan-20 23:00N 50°34' E 000°17'917.4
2018-Jan-20 22:30N 50°35' E 000°30'918.1
2018-Jan-20 22:00N 50°39' E 000°43'1019.6
2018-Jan-20 21:30N 50°45' E 000°55'1020.8
2018-Jan-20 21:00N 50°53' E 001°07'1121.9
2018-Jan-20 20:30N 50°60' E 001°20'1122.2
2018-Jan-20 20:00N 51°07' E 001°34'1121.1
2018-Jan-20 19:30N 51°13' E 001°46'1020.3
2018-Jan-20 19:01N 51°23' E 001°53'816.2
2018-Jan-20 18:30N 51°24' E 002°06'1019.2
2018-Jan-20 18:00N 51°21' E 002°21'1019.1
2018-Jan-20 17:28N 51°23' E 002°37'613.4
2018-Jan-20 17:00N 51°25' E 002°47'816.7
2018-Jan-20 16:30N 51°25' E 003°00'917.0
2018-Jan-20 16:00N 51°25' E 003°14'816.7
2018-Jan-20 15:30N 51°25' E 003°27'611.9
2018-Jan-20 15:00N 51°26' E 003°36'5 9.3
2018-Jan-20 14:31N 51°24' E 003°43'612.2
2018-Jan-20 14:00N 51°21' E 003°51'612.1
2018-Jan-20 13:30N 51°25' E 003°58'5 9.5
2018-Jan-20 13:00N 51°22' E 004°04'611.5
2018-Jan-20 12:30N 51°23' E 004°13'3 6.9
2018-Jan-20 12:00N 51°21' E 004°17'0 0.0
2018-Jan-20 11:30N 51°21' E 004°17'0 0.0
2018-Jan-20 11:00N 51°21' E 004°17'2 3.3
2018-Jan-20 10:30N 51°19' E 004°19'1 2.1
2018-Jan-20 09:59N 51°20' E 004°20'0 0.0
2018-Jan-20 09:29N 51°20' E 004°20'0 0.0
2018-Jan-20 08:59N 51°20' E 004°20'0 0.0
2018-Jan-20 08:26N 51°20' E 004°20'0 0.0
2018-Jan-20 07:59N 51°20' E 004°20'0 0.0
2018-Jan-20 07:29N 51°20' E 004°20'0 0.0
2018-Jan-20 06:56N 51°20' E 004°20'0 0.0
2018-Jan-20 06:29N 51°20' E 004°20'0 0.0
2018-Jan-20 05:56N 51°20' E 004°20'0 0.0
2018-Jan-20 05:29N 51°20' E 004°20'0 0.0
2018-Jan-20 04:59N 51°20' E 004°20'0 0.0
2018-Jan-20 04:26N 51°20' E 004°20'0 0.0
2018-Jan-20 03:53N 51°20' E 004°20'0 0.0
2018-Jan-20 03:26N 51°20' E 004°20'0 0.0
2018-Jan-20 02:56N 51°20' E 004°20'0 0.0
2018-Jan-20 02:26N 51°20' E 004°20'0 0.0
2018-Jan-20 01:59N 51°20' E 004°20'0 0.0
2018-Jan-20 01:26N 51°20' E 004°20'0 0.0
2018-Jan-20 00:59N 51°20' E 004°20'0 0.0
2018-Jan-20 00:23N 51°20' E 004°20'0 0.0
2018-Jan-19 23:59N 51°20' E 004°20'0 0.0
2018-Jan-19 23:29N 51°20' E 004°20'0 0.0
2018-Jan-19 22:59N 51°20' E 004°20'0 0.0
2018-Jan-19 22:26N 51°20' E 004°20'0 0.0
2018-Jan-19 21:56N 51°20' E 004°20'0 0.0
2018-Jan-19 21:26N 51°20' E 004°20'0 0.0
2018-Jan-19 20:59N 51°20' E 004°20'0 0.0
2018-Jan-19 20:29N 51°20' E 004°20'0 0.0
2018-Jan-19 19:59N 51°20' E 004°20'0 0.0
2018-Jan-19 19:29N 51°20' E 004°20'0 0.0
2018-Jan-19 18:59N 51°20' E 004°20'0 0.0
2018-Jan-19 18:26N 51°20' E 004°20'0 0.0
2018-Jan-19 17:56N 51°20' E 004°20'0 0.0
2018-Jan-19 17:26N 51°20' E 004°20'0 0.0
2018-Jan-19 16:56N 51°20' E 004°20'0 0.0
2018-Jan-19 16:23N 51°20' E 004°20'0 0.0
2018-Jan-19 15:59N 51°20' E 004°20'0 0.0
2018-Jan-19 15:26N 51°20' E 004°20'0 0.0
2018-Jan-19 14:50N 51°20' E 004°20'0 0.0
2018-Jan-19 14:26N 51°20' E 004°20'0 0.0
2018-Jan-19 13:56N 51°20' E 004°20'0 0.0
2018-Jan-19 13:29N 51°20' E 004°20'0 0.0
2018-Jan-19 12:56N 51°20' E 004°20'0 0.0
2018-Jan-19 12:29N 51°20' E 004°20'0 0.0
2018-Jan-19 11:44N 51°20' E 004°20'0 0.0
2018-Jan-19 11:20N 51°20' E 004°20'0 0.0
2018-Jan-19 10:56N 51°20' E 004°20'0 0.0
2018-Jan-19 10:20N 51°20' E 004°20'0 0.0
2018-Jan-19 09:38N 51°20' E 004°20'0 0.0
2018-Jan-19 09:29N 51°20' E 004°20'0 0.0
2018-Jan-19 08:59N 51°20' E 004°20'0 0.0
2018-Jan-19 08:29N 51°20' E 004°20'0 0.0
2018-Jan-19 07:59N 51°20' E 004°20'0 0.0
2018-Jan-19 07:29N 51°20' E 004°20'0 0.0
2018-Jan-19 06:59N 51°20' E 004°20'0 0.0
2018-Jan-19 06:29N 51°20' E 004°20'0 0.0
2018-Jan-19 05:59N 51°20' E 004°20'0 0.0
2018-Jan-19 05:26N 51°20' E 004°20'0 0.0
2018-Jan-19 04:56N 51°20' E 004°20'0 0.0
2018-Jan-19 04:29N 51°20' E 004°20'0 0.0
2018-Jan-19 03:59N 51°20' E 004°20'0 0.0
2018-Jan-19 03:29N 51°20' E 004°20'0 0.0
2018-Jan-19 02:59N 51°20' E 004°20'0 0.0
2018-Jan-19 02:29N 51°20' E 004°20'0 0.0
2018-Jan-19 01:59N 51°20' E 004°20'0 0.0
2018-Jan-19 01:26N 51°20' E 004°20'0 0.0
2018-Jan-19 00:56N 51°20' E 004°20'0 0.0
2018-Jan-19 00:29N 51°20' E 004°20'0 0.0
2018-Jan-18 23:59N 51°20' E 004°20'0 0.0
2018-Jan-18 23:29N 51°20' E 004°20'0 0.0
2018-Jan-18 22:59N 51°20' E 004°20'0 0.0
2018-Jan-18 22:29N 51°20' E 004°20'0 0.0
2018-Jan-18 21:59N 51°20' E 004°20'0 0.0
2018-Jan-18 21:29N 51°20' E 004°20'0 0.0
2018-Jan-18 20:59N 51°20' E 004°20'0 0.0
2018-Jan-18 20:29N 51°20' E 004°20'0 0.0
2018-Jan-18 19:59N 51°20' E 004°20'0 0.0
2018-Jan-18 19:29N 51°20' E 004°20'0 0.0
2018-Jan-18 18:59N 51°20' E 004°20'0 0.0
2018-Jan-18 18:29N 51°20' E 004°20'0 0.0
2018-Jan-18 17:59N 51°20' E 004°20'0 0.0
2018-Jan-18 17:20N 51°20' E 004°20'0 0.0
2018-Jan-18 16:56N 51°20' E 004°20'0 0.0
2018-Jan-18 16:23N 51°20' E 004°20'0 0.0
2018-Jan-18 15:53N 51°20' E 004°20'0 0.0
2018-Jan-18 15:26N 51°20' E 004°20'0 0.0
2018-Jan-18 14:56N 51°20' E 004°20'0 0.0
2018-Jan-18 14:20N 51°20' E 004°20'0 0.0
2018-Jan-18 13:53N 51°20' E 004°20'0 0.0
2018-Jan-18 13:29N 51°20' E 004°20'0 0.0
2018-Jan-18 12:53N 51°20' E 004°20'0 0.0
2018-Jan-18 12:29N 51°20' E 004°20'0 0.0
2018-Jan-18 11:59N 51°20' E 004°20'0 0.0
2018-Jan-18 11:23N 51°20' E 004°20'0 0.0
2018-Jan-18 10:59N 51°20' E 004°20'0 0.0
2018-Jan-18 10:29N 51°20' E 004°20'0 0.0
2018-Jan-18 09:56N 51°20' E 004°20'0 0.0
2018-Jan-18 09:26N 51°20' E 004°20'0 0.0
2018-Jan-18 08:59N 51°20' E 004°20'0 0.0
2018-Jan-18 08:29N 51°20' E 004°20'0 0.0
2018-Jan-18 07:59N 51°20' E 004°20'0 0.0
2018-Jan-18 07:29N 51°20' E 004°20'0 0.0
2018-Jan-18 06:59N 51°20' E 004°20'0 0.0
2018-Jan-18 06:29N 51°20' E 004°20'0 0.0
2018-Jan-18 05:59N 51°20' E 004°20'0 0.0
2018-Jan-18 05:29N 51°20' E 004°20'0 0.0
2018-Jan-18 04:59N 51°20' E 004°20'0 0.0
2018-Jan-18 04:30N 51°20' E 004°20'1 2.8
2018-Jan-18 04:00N 51°20' E 004°18'1 1.9
2018-Jan-18 03:31N 51°21' E 004°17'0 0.0
2018-Jan-18 03:00N 51°21' E 004°17'0 0.0
2018-Jan-18 02:30N 51°21' E 004°17'2 4.9
2018-Jan-18 02:00N 51°22' E 004°13'3 7.0
2018-Jan-18 01:30N 51°22' E 004°08'511.1
2018-Jan-18 01:01N 51°26' E 004°01'1211.5
2018-Jan-18 00:00N 51°23' E 003°43'116.1
2018-Jan-17 23:57N 51°24' E 003°43'  

Dump ship's entire track history